sensor_id;sensor_type;location;lat;lon;timestamp;temperature;humidity
78647;DHT22;67961;43.460;3.762;2023-08-20T00:00:26;25.40;73.80
78647;DHT22;67961;43.460;3.762;2023-08-20T00:02:58;25.40;73.80
78647;DHT22;67961;43.460;3.762;2023-08-20T00:05:24;25.40;73.60
78647;DHT22;67961;43.460;3.762;2023-08-20T00:07:50;25.30;73.50
78647;DHT22;67961;43.460;3.762;2023-08-20T00:10:16;25.30;73.40
78647;DHT22;67961;43.460;3.762;2023-08-20T00:12:42;25.30;73.50
78647;DHT22;67961;43.460;3.762;2023-08-20T00:15:07;25.20;70.50
78647;DHT22;67961;43.460;3.762;2023-08-20T00:17:35;25.00;66.20
78647;DHT22;67961;43.460;3.762;2023-08-20T00:20:02;24.80;66.50
78647;DHT22;67961;43.460;3.762;2023-08-20T00:22:34;24.70;66.20
78647;DHT22;67961;43.460;3.762;2023-08-20T00:25:00;24.60;65.20
78647;DHT22;67961;43.460;3.762;2023-08-20T00:27:26;24.60;64.60
78647;DHT22;67961;43.460;3.762;2023-08-20T00:29:52;24.50;64.70
78647;DHT22;67961;43.460;3.762;2023-08-20T00:32:17;24.50;64.80
78647;DHT22;67961;43.460;3.762;2023-08-20T00:34:43;24.40;64.80
78647;DHT22;67961;43.460;3.762;2023-08-20T00:37:09;24.20;65.20
78647;DHT22;67961;43.460;3.762;2023-08-20T00:39:34;24.20;65.50
78647;DHT22;67961;43.460;3.762;2023-08-20T00:42:00;24.20;65.40
78647;DHT22;67961;43.460;3.762;2023-08-20T00:44:26;24.10;65.70
78647;DHT22;67961;43.460;3.762;2023-08-20T00:46:53;24.10;65.80
78647;DHT22;67961;43.460;3.762;2023-08-20T00:49:18;24.10;65.90
78647;DHT22;67961;43.460;3.762;2023-08-20T00:51:45;24.20;66.10
78647;DHT22;67961;43.460;3.762;2023-08-20T00:54:11;24.20;66.50
78647;DHT22;67961;43.460;3.762;2023-08-20T00:56:37;24.10;67.50
78647;DHT22;67961;43.460;3.762;2023-08-20T00:59:04;24.20;67.50
78647;DHT22;67961;43.460;3.762;2023-08-20T01:01:30;24.20;67.10
78647;DHT22;67961;43.460;3.762;2023-08-20T01:03:56;24.00;67.50
78647;DHT22;67961;43.460;3.762;2023-08-20T01:09:37;23.90;70.10
78647;DHT22;67961;43.460;3.762;2023-08-20T01:12:07;23.90;70.90
78647;DHT22;67961;43.460;3.762;2023-08-20T01:14:33;24.00;70.90
78647;DHT22;67961;43.460;3.762;2023-08-20T01:16:59;24.00;70.80
78647;DHT22;67961;43.460;3.762;2023-08-20T01:19:25;24.00;70.60
78647;DHT22;67961;43.460;3.762;2023-08-20T01:22:25;24.00;70.30
78647;DHT22;67961;43.460;3.762;2023-08-20T01:25:01;24.00;70.40
78647;DHT22;67961;43.460;3.762;2023-08-20T01:27:41;24.00;70.60
78647;DHT22;67961;43.460;3.762;2023-08-20T01:30:09;24.00;70.90
78647;DHT22;67961;43.460;3.762;2023-08-20T01:32:36;23.90;71.30
78647;DHT22;67961;43.460;3.762;2023-08-20T01:35:02;23.80;72.30
78647;DHT22;67961;43.460;3.762;2023-08-20T01:37:28;23.80;72.90
78647;DHT22;67961;43.460;3.762;2023-08-20T01:39:54;23.90;72.40
78647;DHT22;67961;43.460;3.762;2023-08-20T01:42:20;24.00;71.80
78647;DHT22;67961;43.460;3.762;2023-08-20T01:44:45;24.00;71.60
78647;DHT22;67961;43.460;3.762;2023-08-20T01:47:11;24.00;71.60
78647;DHT22;67961;43.460;3.762;2023-08-20T01:49:37;24.00;71.60
78647;DHT22;67961;43.460;3.762;2023-08-20T01:52:02;24.00;71.50
78647;DHT22;67961;43.460;3.762;2023-08-20T01:54:29;24.00;71.20
78647;DHT22;67961;43.460;3.762;2023-08-20T01:56:54;24.00;71.40
78647;DHT22;67961;43.460;3.762;2023-08-20T01:59:22;24.00;71.20
78647;DHT22;67961;43.460;3.762;2023-08-20T02:01:48;23.90;71.50
78647;DHT22;67961;43.460;3.762;2023-08-20T02:04:13;23.90;71.50
78647;DHT22;67961;43.460;3.762;2023-08-20T02:06:39;23.80;71.50
78647;DHT22;67961;43.460;3.762;2023-08-20T02:09:05;23.90;71.50
78647;DHT22;67961;43.460;3.762;2023-08-20T02:11:30;23.90;71.40
78647;DHT22;67961;43.460;3.762;2023-08-20T02:14:00;23.80;71.70
78647;DHT22;67961;43.460;3.762;2023-08-20T02:16:26;23.80;71.60
78647;DHT22;67961;43.460;3.762;2023-08-20T02:18:52;23.80;71.70
78647;DHT22;67961;43.460;3.762;2023-08-20T02:21:17;23.70;71.50
78647;DHT22;67961;43.460;3.762;2023-08-20T02:23:43;23.70;71.20
78647;DHT22;67961;43.460;3.762;2023-08-20T02:26:09;23.60;71.60
78647;DHT22;67961;43.460;3.762;2023-08-20T02:28:35;23.60;71.80
78647;DHT22;67961;43.460;3.762;2023-08-20T02:31:04;23.60;71.70
78647;DHT22;67961;43.460;3.762;2023-08-20T02:33:30;23.50;71.70
78647;DHT22;67961;43.460;3.762;2023-08-20T02:36:01;23.60;71.70
78647;DHT22;67961;43.460;3.762;2023-08-20T02:38:28;23.50;72.10
78647;DHT22;67961;43.460;3.762;2023-08-20T02:40:53;23.50;72.00
78647;DHT22;67961;43.460;3.762;2023-08-20T02:43:19;23.50;71.40
78647;DHT22;67961;43.460;3.762;2023-08-20T02:45:44;23.40;71.40
78647;DHT22;67961;43.460;3.762;2023-08-20T02:48:11;23.40;72.10
78647;DHT22;67961;43.460;3.762;2023-08-20T02:50:36;23.30;72.20
78647;DHT22;67961;43.460;3.762;2023-08-20T02:53:02;23.40;72.00
78647;DHT22;67961;43.460;3.762;2023-08-20T02:55:29;23.40;72.10
78647;DHT22;67961;43.460;3.762;2023-08-20T02:57:55;23.50;72.20
78647;DHT22;67961;43.460;3.762;2023-08-20T03:00:21;23.50;72.20
78647;DHT22;67961;43.460;3.762;2023-08-20T03:02:46;23.40;72.10
78647;DHT22;67961;43.460;3.762;2023-08-20T03:05:12;23.30;71.60
78647;DHT22;67961;43.460;3.762;2023-08-20T03:07:38;23.30;71.80
78647;DHT22;67961;43.460;3.762;2023-08-20T03:10:04;23.30;72.00
78647;DHT22;67961;43.460;3.762;2023-08-20T03:12:30;23.20;71.90
78647;DHT22;67961;43.460;3.762;2023-08-20T03:14:55;23.20;72.20
78647;DHT22;67961;43.460;3.762;2023-08-20T03:17:21;23.20;72.20
78647;DHT22;67961;43.460;3.762;2023-08-20T03:19:55;23.00;71.50
78647;DHT22;67961;43.460;3.762;2023-08-20T03:22:21;22.80;71.50
78647;DHT22;67961;43.460;3.762;2023-08-20T03:24:47;22.50;71.80
78647;DHT22;67961;43.460;3.762;2023-08-20T03:27:12;22.40;72.30
78647;DHT22;67961;43.460;3.762;2023-08-20T03:29:38;22.30;72.60
78647;DHT22;67961;43.460;3.762;2023-08-20T03:32:04;22.30;72.50
78647;DHT22;67961;43.460;3.762;2023-08-20T03:34:30;22.40;72.40
78647;DHT22;67961;43.460;3.762;2023-08-20T03:36:55;22.50;72.50
78647;DHT22;67961;43.460;3.762;2023-08-20T03:39:21;22.60;72.40
78647;DHT22;67961;43.460;3.762;2023-08-20T03:41:47;22.60;72.20
78647;DHT22;67961;43.460;3.762;2023-08-20T03:44:12;22.70;72.20
78647;DHT22;67961;43.460;3.762;2023-08-20T03:46:38;22.70;72.20
78647;DHT22;67961;43.460;3.762;2023-08-20T03:49:03;22.70;72.30
78647;DHT22;67961;43.460;3.762;2023-08-20T03:51:29;22.70;72.10
78647;DHT22;67961;43.460;3.762;2023-08-20T03:53:55;22.70;71.90
78647;DHT22;67961;43.460;3.762;2023-08-20T03:56:20;22.80;72.10
78647;DHT22;67961;43.460;3.762;2023-08-20T03:58:46;22.80;72.50
78647;DHT22;67961;43.460;3.762;2023-08-20T04:01:11;22.70;72.30
78647;DHT22;67961;43.460;3.762;2023-08-20T04:03:37;22.80;72.50
78647;DHT22;67961;43.460;3.762;2023-08-20T04:06:03;22.80;72.40
78647;DHT22;67961;43.460;3.762;2023-08-20T04:08:29;22.80;72.50
78647;DHT22;67961;43.460;3.762;2023-08-20T04:10:55;22.80;72.40
78647;DHT22;67961;43.460;3.762;2023-08-20T04:13:20;22.70;72.70
78647;DHT22;67961;43.460;3.762;2023-08-20T04:15:46;22.70;72.90
78647;DHT22;67961;43.460;3.762;2023-08-20T04:18:14;22.80;72.90
78647;DHT22;67961;43.460;3.762;2023-08-20T04:20:40;22.70;72.80
78647;DHT22;67961;43.460;3.762;2023-08-20T04:23:06;22.70;72.90
78647;DHT22;67961;43.460;3.762;2023-08-20T04:25:31;22.60;72.50
78647;DHT22;67961;43.460;3.762;2023-08-20T04:27:57;22.60;72.50
78647;DHT22;67961;43.460;3.762;2023-08-20T04:30:22;22.60;72.40
78647;DHT22;67961;43.460;3.762;2023-08-20T04:32:48;22.50;72.30
78647;DHT22;67961;43.460;3.762;2023-08-20T04:35:14;22.50;72.20
78647;DHT22;67961;43.460;3.762;2023-08-20T04:37:39;22.30;72.10
78647;DHT22;67961;43.460;3.762;2023-08-20T04:40:06;22.30;72.10
78647;DHT22;67961;43.460;3.762;2023-08-20T04:42:33;22.20;71.90
78647;DHT22;67961;43.460;3.762;2023-08-20T04:44:58;22.20;72.10
78647;DHT22;67961;43.460;3.762;2023-08-20T04:47:24;22.20;71.70
78647;DHT22;67961;43.460;3.762;2023-08-20T04:49:50;22.20;71.50
78647;DHT22;67961;43.460;3.762;2023-08-20T04:52:16;22.20;71.40
78647;DHT22;67961;43.460;3.762;2023-08-20T04:54:42;22.20;71.30
78647;DHT22;67961;43.460;3.762;2023-08-20T04:57:07;22.20;71.00
78647;DHT22;67961;43.460;3.762;2023-08-20T04:59:33;22.20;70.80
78647;DHT22;67961;43.460;3.762;2023-08-20T05:01:59;22.20;70.50
78647;DHT22;67961;43.460;3.762;2023-08-20T05:04:24;22.20;70.50
78647;DHT22;67961;43.460;3.762;2023-08-20T05:06:50;22.20;70.50
78647;DHT22;67961;43.460;3.762;2023-08-20T05:09:16;22.20;70.20
78647;DHT22;67961;43.460;3.762;2023-08-20T05:11:41;22.20;70.10
78647;DHT22;67961;43.460;3.762;2023-08-20T05:14:07;22.20;70.00
78647;DHT22;67961;43.460;3.762;2023-08-20T05:16:33;22.10;69.60
78647;DHT22;67961;43.460;3.762;2023-08-20T05:18:59;22.20;70.00
78647;DHT22;67961;43.460;3.762;2023-08-20T05:21:24;22.20;69.90
78647;DHT22;67961;43.460;3.762;2023-08-20T05:23:50;22.30;70.10
78647;DHT22;67961;43.460;3.762;2023-08-20T05:26:15;22.50;70.50
78647;DHT22;67961;43.460;3.762;2023-08-20T05:28:41;22.70;69.70
78647;DHT22;67961;43.460;3.762;2023-08-20T05:31:07;22.90;68.90
78647;DHT22;67961;43.460;3.762;2023-08-20T05:33:32;23.10;68.30
78647;DHT22;67961;43.460;3.762;2023-08-20T05:35:59;23.20;68.00
78647;DHT22;67961;43.460;3.762;2023-08-20T05:38:25;23.20;67.30
78647;DHT22;67961;43.460;3.762;2023-08-20T05:40:51;23.30;67.30
78647;DHT22;67961;43.460;3.762;2023-08-20T05:43:16;23.30;67.20
78647;DHT22;67961;43.460;3.762;2023-08-20T05:45:42;23.30;66.70
78647;DHT22;67961;43.460;3.762;2023-08-20T05:48:07;23.30;66.50
78647;DHT22;67961;43.460;3.762;2023-08-20T05:50:33;23.40;65.70
78647;DHT22;67961;43.460;3.762;2023-08-20T05:52:59;23.40;65.00
78647;DHT22;67961;43.460;3.762;2023-08-20T05:55:25;23.40;65.00
78647;DHT22;67961;43.460;3.762;2023-08-20T05:57:51;23.30;65.00
78647;DHT22;67961;43.460;3.762;2023-08-20T06:00:17;23.40;64.90
78647;DHT22;67961;43.460;3.762;2023-08-20T06:02:43;23.50;65.10
78647;DHT22;67961;43.460;3.762;2023-08-20T06:05:09;23.50;65.30
78647;DHT22;67961;43.460;3.762;2023-08-20T06:07:35;23.50;65.70
78647;DHT22;67961;43.460;3.762;2023-08-20T06:10:01;23.60;66.00
78647;DHT22;67961;43.460;3.762;2023-08-20T06:12:27;23.80;65.40
78647;DHT22;67961;43.460;3.762;2023-08-20T06:14:52;23.90;65.20
78647;DHT22;67961;43.460;3.762;2023-08-20T06:17:18;23.90;64.80
78647;DHT22;67961;43.460;3.762;2023-08-20T06:19:44;24.00;64.70
78647;DHT22;67961;43.460;3.762;2023-08-20T06:22:10;24.20;63.90
78647;DHT22;67961;43.460;3.762;2023-08-20T06:24:36;24.20;63.60
78647;DHT22;67961;43.460;3.762;2023-08-20T06:27:02;24.30;63.20
78647;DHT22;67961;43.460;3.762;2023-08-20T06:29:27;24.40;62.40
78647;DHT22;67961;43.460;3.762;2023-08-20T06:31:53;24.60;62.20
78647;DHT22;67961;43.460;3.762;2023-08-20T06:34:18;24.60;60.80
78647;DHT22;67961;43.460;3.762;2023-08-20T06:36:44;24.80;60.70
78647;DHT22;67961;43.460;3.762;2023-08-20T06:39:10;25.00;60.90
78647;DHT22;67961;43.460;3.762;2023-08-20T06:41:36;25.00;59.70
78647;DHT22;67961;43.460;3.762;2023-08-20T06:44:02;25.00;60.00
78647;DHT22;67961;43.460;3.762;2023-08-20T06:46:28;25.20;60.90
78647;DHT22;67961;43.460;3.762;2023-08-20T06:48:54;25.20;59.50
78647;DHT22;67961;43.460;3.762;2023-08-20T06:51:20;25.30;59.10
78647;DHT22;67961;43.460;3.762;2023-08-20T06:53:50;25.40;57.60
78647;DHT22;67961;43.460;3.762;2023-08-20T06:56:16;25.60;56.60
78647;DHT22;67961;43.460;3.762;2023-08-20T06:58:42;25.80;56.80
78647;DHT22;67961;43.460;3.762;2023-08-20T07:01:08;25.90;56.50
78647;DHT22;67961;43.460;3.762;2023-08-20T07:03:41;26.00;55.70
78647;DHT22;67961;43.460;3.762;2023-08-20T07:06:08;26.10;54.00
78647;DHT22;67961;43.460;3.762;2023-08-20T07:08:35;26.20;54.60
78647;DHT22;67961;43.460;3.762;2023-08-20T07:11:01;26.20;54.00
78647;DHT22;67961;43.460;3.762;2023-08-20T07:13:26;26.30;54.00
78647;DHT22;67961;43.460;3.762;2023-08-20T07:15:52;26.40;52.70
78647;DHT22;67961;43.460;3.762;2023-08-20T07:18:18;26.60;51.80
78647;DHT22;67961;43.460;3.762;2023-08-20T07:20:44;26.80;51.60
78647;DHT22;67961;43.460;3.762;2023-08-20T07:23:11;26.90;51.00
78647;DHT22;67961;43.460;3.762;2023-08-20T07:25:41;26.90;51.00
78647;DHT22;67961;43.460;3.762;2023-08-20T07:28:08;26.90;50.80
78647;DHT22;67961;43.460;3.762;2023-08-20T07:30:35;27.00;50.50
78647;DHT22;67961;43.460;3.762;2023-08-20T07:33:01;27.10;50.30
78647;DHT22;67961;43.460;3.762;2023-08-20T07:35:27;27.20;50.20
78647;DHT22;67961;43.460;3.762;2023-08-20T07:37:53;27.30;49.80
78647;DHT22;67961;43.460;3.762;2023-08-20T07:40:19;27.30;49.90
78647;DHT22;67961;43.460;3.762;2023-08-20T07:42:45;27.30;50.00
78647;DHT22;67961;43.460;3.762;2023-08-20T07:45:10;27.40;50.10
78647;DHT22;67961;43.460;3.762;2023-08-20T07:47:37;27.40;49.80
78647;DHT22;67961;43.460;3.762;2023-08-20T07:50:06;27.40;50.00
78647;DHT22;67961;43.460;3.762;2023-08-20T07:52:32;27.50;49.90
78647;DHT22;67961;43.460;3.762;2023-08-20T07:54:58;27.50;50.30
78647;DHT22;67961;43.460;3.762;2023-08-20T07:57:24;27.50;50.80
78647;DHT22;67961;43.460;3.762;2023-08-20T07:59:50;27.50;51.30
78647;DHT22;67961;43.460;3.762;2023-08-20T08:02:16;27.50;52.50
78647;DHT22;67961;43.460;3.762;2023-08-20T08:04:42;27.40;52.50
78647;DHT22;67961;43.460;3.762;2023-08-20T08:07:09;27.30;52.90
78647;DHT22;67961;43.460;3.762;2023-08-20T08:09:35;27.30;53.50
78647;DHT22;67961;43.460;3.762;2023-08-20T08:12:01;27.30;53.50
78647;DHT22;67961;43.460;3.762;2023-08-20T08:14:27;27.50;52.90
78647;DHT22;67961;43.460;3.762;2023-08-20T08:16:53;27.50;52.70
78647;DHT22;67961;43.460;3.762;2023-08-20T08:19:19;27.50;52.80
78647;DHT22;67961;43.460;3.762;2023-08-20T08:21:48;27.70;52.30
78647;DHT22;67961;43.460;3.762;2023-08-20T08:24:14;27.90;52.20
78647;DHT22;67961;43.460;3.762;2023-08-20T08:26:40;27.90;51.70
78647;DHT22;67961;43.460;3.762;2023-08-20T08:29:06;28.10;51.30
78647;DHT22;67961;43.460;3.762;2023-08-20T08:31:33;28.30;50.80
78647;DHT22;67961;43.460;3.762;2023-08-20T08:33:59;28.50;50.50
78647;DHT22;67961;43.460;3.762;2023-08-20T08:36:25;28.80;49.90
78647;DHT22;67961;43.460;3.762;2023-08-20T08:38:51;29.00;49.90
78647;DHT22;67961;43.460;3.762;2023-08-20T08:41:17;29.40;49.50
78647;DHT22;67961;43.460;3.762;2023-08-20T08:43:43;29.70;48.10
78647;DHT22;67961;43.460;3.762;2023-08-20T08:46:15;30.00;47.60
78647;DHT22;67961;43.460;3.762;2023-08-20T08:48:42;30.30;46.80
78647;DHT22;67961;43.460;3.762;2023-08-20T08:51:09;30.50;46.80
78647;DHT22;67961;43.460;3.762;2023-08-20T08:53:35;30.50;46.40
78647;DHT22;67961;43.460;3.762;2023-08-20T08:56:01;30.80;45.60
78647;DHT22;67961;43.460;3.762;2023-08-20T08:58:28;30.90;44.90
78647;DHT22;67961;43.460;3.762;2023-08-20T09:00:54;31.00;45.20
78647;DHT22;67961;43.460;3.762;2023-08-20T09:03:20;31.30;44.60
78647;DHT22;67961;43.460;3.762;2023-08-20T09:05:59;31.50;44.00
78647;DHT22;67961;43.460;3.762;2023-08-20T09:08:32;31.60;44.80
78647;DHT22;67961;43.460;3.762;2023-08-20T09:10:59;31.80;43.10
78647;DHT22;67961;43.460;3.762;2023-08-20T09:13:32;31.90;43.40
78647;DHT22;67961;43.460;3.762;2023-08-20T09:15:58;32.00;42.40
78647;DHT22;67961;43.460;3.762;2023-08-20T09:18:23;32.20;42.20
78647;DHT22;67961;43.460;3.762;2023-08-20T09:20:49;32.20;42.50
78647;DHT22;67961;43.460;3.762;2023-08-20T09:23:15;32.40;42.00
78647;DHT22;67961;43.460;3.762;2023-08-20T09:25:42;32.50;41.10
78647;DHT22;67961;43.460;3.762;2023-08-20T09:28:08;32.50;41.60
78647;DHT22;67961;43.460;3.762;2023-08-20T09:30:34;32.50;40.70
78647;DHT22;67961;43.460;3.762;2023-08-20T09:33:18;32.50;41.50
78647;DHT22;67961;43.460;3.762;2023-08-20T09:35:50;32.50;40.50
78647;DHT22;67961;43.460;3.762;2023-08-20T09:38:18;32.60;41.40
78647;DHT22;67961;43.460;3.762;2023-08-20T09:40:46;32.60;41.40
78647;DHT22;67961;43.460;3.762;2023-08-20T09:43:16;32.40;40.80
78647;DHT22;67961;43.460;3.762;2023-08-20T09:45:42;32.50;41.30
78647;DHT22;67961;43.460;3.762;2023-08-20T09:48:09;32.60;40.60
78647;DHT22;67961;43.460;3.762;2023-08-20T09:50:36;32.80;39.90
78647;DHT22;67961;43.460;3.762;2023-08-20T09:53:06;33.00;40.00
78647;DHT22;67961;43.460;3.762;2023-08-20T09:55:38;33.00;40.40
78647;DHT22;67961;43.460;3.762;2023-08-20T09:58:07;33.00;40.90
78647;DHT22;67961;43.460;3.762;2023-08-20T10:00:33;33.20;41.20
78647;DHT22;67961;43.460;3.762;2023-08-20T10:02:59;33.20;40.60
78647;DHT22;67961;43.460;3.762;2023-08-20T10:05:25;33.10;41.00
78647;DHT22;67961;43.460;3.762;2023-08-20T10:07:50;33.30;40.80
78647;DHT22;67961;43.460;3.762;2023-08-20T10:10:18;33.30;40.80
78647;DHT22;67961;43.460;3.762;2023-08-20T10:12:44;33.30;41.20
78647;DHT22;67961;43.460;3.762;2023-08-20T10:15:14;33.40;41.70
78647;DHT22;67961;43.460;3.762;2023-08-20T10:17:42;33.50;41.60
78647;DHT22;67961;43.460;3.762;2023-08-20T10:20:08;33.60;42.00
78647;DHT22;67961;43.460;3.762;2023-08-20T10:22:40;33.60;42.40
78647;DHT22;67961;43.460;3.762;2023-08-20T10:25:26;33.60;42.20
78647;DHT22;67961;43.460;3.762;2023-08-20T10:27:53;33.80;42.00
78647;DHT22;67961;43.460;3.762;2023-08-20T10:30:26;33.90;42.10
78647;DHT22;67961;43.460;3.762;2023-08-20T10:35:27;34.00;41.70
78647;DHT22;67961;43.460;3.762;2023-08-20T10:38:15;34.20;41.60
78647;DHT22;67961;43.460;3.762;2023-08-20T10:43:33;34.60;42.20
78647;DHT22;67961;43.460;3.762;2023-08-20T10:46:13;34.40;42.20
78647;DHT22;67961;43.460;3.762;2023-08-20T10:48:56;34.30;41.80
78647;DHT22;67961;43.460;3.762;2023-08-20T10:51:36;34.20;40.70
78647;DHT22;67961;43.460;3.762;2023-08-20T10:54:05;34.20;41.30
78647;DHT22;67961;43.460;3.762;2023-08-20T10:56:55;34.10;42.70
78647;DHT22;67961;43.460;3.762;2023-08-20T10:59:27;34.10;43.10
78647;DHT22;67961;43.460;3.762;2023-08-20T11:01:54;33.90;42.50
78647;DHT22;67961;43.460;3.762;2023-08-20T11:04:25;33.90;42.80
78647;DHT22;67961;43.460;3.762;2023-08-20T11:06:54;33.80;44.20
78647;DHT22;67961;43.460;3.762;2023-08-20T11:09:26;33.80;43.60
78647;DHT22;67961;43.460;3.762;2023-08-20T11:11:53;34.20;43.70
78647;DHT22;67961;43.460;3.762;2023-08-20T11:14:19;34.30;43.50
78647;DHT22;67961;43.460;3.762;2023-08-20T11:16:46;34.10;43.00
78647;DHT22;67961;43.460;3.762;2023-08-20T11:19:13;34.00;44.30
78647;DHT22;67961;43.460;3.762;2023-08-20T11:21:40;34.00;43.00
78647;DHT22;67961;43.460;3.762;2023-08-20T11:24:09;34.00;42.90
78647;DHT22;67961;43.460;3.762;2023-08-20T11:26:38;34.10;42.50
78647;DHT22;67961;43.460;3.762;2023-08-20T11:29:08;34.00;42.60
78647;DHT22;67961;43.460;3.762;2023-08-20T11:31:35;34.20;44.50
78647;DHT22;67961;43.460;3.762;2023-08-20T11:34:02;34.20;44.10
78647;DHT22;67961;43.460;3.762;2023-08-20T11:36:28;34.20;43.90
78647;DHT22;67961;43.460;3.762;2023-08-20T11:38:55;34.10;43.30
78647;DHT22;67961;43.460;3.762;2023-08-20T11:41:21;34.40;42.30
78647;DHT22;67961;43.460;3.762;2023-08-20T11:43:48;34.50;43.20
78647;DHT22;67961;43.460;3.762;2023-08-20T11:46:14;34.50;42.40
78647;DHT22;67961;43.460;3.762;2023-08-20T11:51:26;34.50;44.00
78647;DHT22;67961;43.460;3.762;2023-08-20T11:53:52;34.40;44.80
78647;DHT22;67961;43.460;3.762;2023-08-20T11:56:17;34.20;43.40
78647;DHT22;67961;43.460;3.762;2023-08-20T11:58:43;34.20;45.10
78647;DHT22;67961;43.460;3.762;2023-08-20T12:01:09;34.00;45.60
78647;DHT22;67961;43.460;3.762;2023-08-20T12:03:37;33.80;45.10
78647;DHT22;67961;43.460;3.762;2023-08-20T12:06:18;33.70;44.30
78647;DHT22;67961;43.460;3.762;2023-08-20T12:08:44;33.60;46.60
78647;DHT22;67961;43.460;3.762;2023-08-20T12:11:10;33.50;44.50
78647;DHT22;67961;43.460;3.762;2023-08-20T12:13:36;33.60;44.30
78647;DHT22;67961;43.460;3.762;2023-08-20T12:16:02;33.50;45.70
78647;DHT22;67961;43.460;3.762;2023-08-20T12:18:27;33.40;45.50
78647;DHT22;67961;43.460;3.762;2023-08-20T12:20:54;33.60;45.40
78647;DHT22;67961;43.460;3.762;2023-08-20T12:23:20;33.60;44.90
78647;DHT22;67961;43.460;3.762;2023-08-20T12:25:50;33.30;45.90
78647;DHT22;67961;43.460;3.762;2023-08-20T12:28:16;33.20;45.00
78647;DHT22;67961;43.460;3.762;2023-08-20T12:30:42;33.10;44.90
78647;DHT22;67961;43.460;3.762;2023-08-20T12:33:07;33.10;45.00
78647;DHT22;67961;43.460;3.762;2023-08-20T12:35:33;33.10;44.70
78647;DHT22;67961;43.460;3.762;2023-08-20T12:37:58;33.40;43.90
78647;DHT22;67961;43.460;3.762;2023-08-20T12:40:24;33.50;44.20
78647;DHT22;67961;43.460;3.762;2023-08-20T12:42:50;33.50;45.00
78647;DHT22;67961;43.460;3.762;2023-08-20T12:45:15;33.80;45.00
78647;DHT22;67961;43.460;3.762;2023-08-20T12:47:41;33.80;43.70
78647;DHT22;67961;43.460;3.762;2023-08-20T12:50:07;33.80;42.60
78647;DHT22;67961;43.460;3.762;2023-08-20T12:52:33;33.90;42.40
78647;DHT22;67961;43.460;3.762;2023-08-20T12:54:59;34.00;42.20
78647;DHT22;67961;43.460;3.762;2023-08-20T12:57:24;33.90;42.40
78647;DHT22;67961;43.460;3.762;2023-08-20T12:59:50;33.70;44.00
78647;DHT22;67961;43.460;3.762;2023-08-20T13:02:17;33.60;44.40
78647;DHT22;67961;43.460;3.762;2023-08-20T13:04:43;33.60;43.60
78647;DHT22;67961;43.460;3.762;2023-08-20T13:07:09;33.70;44.40
78647;DHT22;67961;43.460;3.762;2023-08-20T13:09:35;33.80;44.20
78647;DHT22;67961;43.460;3.762;2023-08-20T13:12:01;33.60;44.90
78647;DHT22;67961;43.460;3.762;2023-08-20T13:14:29;33.60;43.10
78647;DHT22;67961;43.460;3.762;2023-08-20T13:16:55;33.50;43.80
78647;DHT22;67961;43.460;3.762;2023-08-20T13:19:22;33.40;44.20
78647;DHT22;67961;43.460;3.762;2023-08-20T13:21:47;33.40;43.80
78647;DHT22;67961;43.460;3.762;2023-08-20T13:24:13;33.50;42.90
78647;DHT22;67961;43.460;3.762;2023-08-20T13:26:39;33.50;42.70
78647;DHT22;67961;43.460;3.762;2023-08-20T13:29:05;33.50;42.50
78647;DHT22;67961;43.460;3.762;2023-08-20T13:31:30;33.50;41.30
78647;DHT22;67961;43.460;3.762;2023-08-20T13:33:56;33.40;41.60
78647;DHT22;67961;43.460;3.762;2023-08-20T13:36:21;33.30;41.00
78647;DHT22;67961;43.460;3.762;2023-08-20T13:38:47;33.30;41.40
78647;DHT22;67961;43.460;3.762;2023-08-20T13:41:13;33.20;40.30
78647;DHT22;67961;43.460;3.762;2023-08-20T13:43:38;33.10;40.90
78647;DHT22;67961;43.460;3.762;2023-08-20T13:46:04;33.10;41.00
78647;DHT22;67961;43.460;3.762;2023-08-20T13:48:29;33.20;40.50
78647;DHT22;67961;43.460;3.762;2023-08-20T13:50:55;33.10;41.00
78647;DHT22;67961;43.460;3.762;2023-08-20T13:53:21;33.00;41.10
78647;DHT22;67961;43.460;3.762;2023-08-20T13:55:46;33.00;42.20
78647;DHT22;67961;43.460;3.762;2023-08-20T13:58:12;33.00;42.30
78647;DHT22;67961;43.460;3.762;2023-08-20T14:00:38;32.90;42.50
78647;DHT22;67961;43.460;3.762;2023-08-20T14:03:04;32.90;42.20
78647;DHT22;67961;43.460;3.762;2023-08-20T14:05:30;32.80;44.10
78647;DHT22;67961;43.460;3.762;2023-08-20T14:07:56;32.80;44.80
78647;DHT22;67961;43.460;3.762;2023-08-20T14:10:21;32.80;44.10
78647;DHT22;67961;43.460;3.762;2023-08-20T14:12:47;32.80;44.40
78647;DHT22;67961;43.460;3.762;2023-08-20T14:15:13;32.70;45.20
78647;DHT22;67961;43.460;3.762;2023-08-20T14:17:38;32.50;44.60
78647;DHT22;67961;43.460;3.762;2023-08-20T14:20:05;32.50;44.30
78647;DHT22;67961;43.460;3.762;2023-08-20T14:22:32;32.40;45.00
78647;DHT22;67961;43.460;3.762;2023-08-20T14:24:58;32.60;44.80
78647;DHT22;67961;43.460;3.762;2023-08-20T14:27:23;32.80;44.90
78647;DHT22;67961;43.460;3.762;2023-08-20T14:29:49;32.50;45.10
78647;DHT22;67961;43.460;3.762;2023-08-20T14:32:14;32.60;44.50
78647;DHT22;67961;43.460;3.762;2023-08-20T14:34:40;32.50;43.80
78647;DHT22;67961;43.460;3.762;2023-08-20T14:37:06;32.50;45.10
78647;DHT22;67961;43.460;3.762;2023-08-20T14:39:31;32.40;45.40
78647;DHT22;67961;43.460;3.762;2023-08-20T14:41:58;32.40;45.90
78647;DHT22;67961;43.460;3.762;2023-08-20T14:44:23;32.50;45.10
78647;DHT22;67961;43.460;3.762;2023-08-20T14:46:49;32.50;44.50
78647;DHT22;67961;43.460;3.762;2023-08-20T14:49:16;32.50;43.70
78647;DHT22;67961;43.460;3.762;2023-08-20T14:51:43;32.50;44.50
78647;DHT22;67961;43.460;3.762;2023-08-20T14:54:08;32.50;44.70
78647;DHT22;67961;43.460;3.762;2023-08-20T14:56:34;32.50;44.90
78647;DHT22;67961;43.460;3.762;2023-08-20T14:58:59;32.50;44.20
78647;DHT22;67961;43.460;3.762;2023-08-20T15:01:25;32.40;44.60
78647;DHT22;67961;43.460;3.762;2023-08-20T15:03:51;32.30;44.90
78647;DHT22;67961;43.460;3.762;2023-08-20T15:06:16;32.20;45.40
78647;DHT22;67961;43.460;3.762;2023-08-20T15:08:42;32.20;45.70
78647;DHT22;67961;43.460;3.762;2023-08-20T15:11:08;32.30;45.90
78647;DHT22;67961;43.460;3.762;2023-08-20T15:13:34;32.30;45.60
78647;DHT22;67961;43.460;3.762;2023-08-20T15:15:59;32.30;45.50
78647;DHT22;67961;43.460;3.762;2023-08-20T15:18:25;32.40;45.70
78647;DHT22;67961;43.460;3.762;2023-08-20T15:20:57;32.40;44.80
78647;DHT22;67961;43.460;3.762;2023-08-20T15:23:24;32.50;44.90
78647;DHT22;67961;43.460;3.762;2023-08-20T15:25:54;32.50;45.50
78647;DHT22;67961;43.460;3.762;2023-08-20T15:28:22;32.50;45.50
78647;DHT22;67961;43.460;3.762;2023-08-20T15:30:51;32.40;45.10
78647;DHT22;67961;43.460;3.762;2023-08-20T15:33:18;32.50;45.30
78647;DHT22;67961;43.460;3.762;2023-08-20T15:35:44;32.50;45.00
78647;DHT22;67961;43.460;3.762;2023-08-20T15:38:09;32.50;45.10